createdAt,value
2022-10-02T00:01:47.519Z,44.17
2022-10-02T00:06:53.361Z,43.69
2022-10-02T00:11:58.701Z,43.97
2022-10-02T00:17:01.766Z,43.82
2022-10-02T00:22:45.592Z,44.07
2022-10-02T00:28:38.307Z,44.14
2022-10-02T00:34:22.286Z,43.92
2022-10-02T00:39:40.385Z,44.05
2022-10-02T00:45:16.154Z,44.32
2022-10-02T00:50:20.461Z,43.92
2022-10-02T00:55:44.553Z,44.05
2022-10-02T01:00:59.412Z,44.46
2022-10-02T01:06:01.247Z,44.96
2022-10-02T01:11:04.084Z,44.45
2022-10-02T01:16:14.340Z,44.37
2022-10-02T01:21:32.813Z,44.51
2022-10-02T01:26:34.903Z,44.54
2022-10-02T01:31:37.449Z,44.19
2022-10-02T01:36:39.524Z,44.58
2022-10-02T01:41:44.668Z,44.20
2022-10-02T01:47:07.702Z,44.49
2022-10-02T01:52:20.368Z,44.45
2022-10-02T01:57:37.382Z,44.65
2022-10-02T02:03:07.447Z,44.66
2022-10-02T02:08:50.827Z,44.58
2022-10-02T02:13:56.490Z,44.44
2022-10-02T02:19:02.431Z,44.02
2022-10-02T02:24:11.648Z,44.18
2022-10-02T02:29:16.903Z,44.47
2022-10-02T02:34:30.809Z,44.35
2022-10-02T02:39:40.629Z,44.17
2022-10-02T02:44:52.754Z,44.27
2022-10-02T02:50:03.660Z,44.44
2022-10-02T02:55:14.858Z,44.15
2022-10-02T03:00:17.671Z,44.09
2022-10-02T03:05:19.715Z,44.44
2022-10-02T03:10:37.335Z,44.57
2022-10-02T03:15:57.662Z,44.24
2022-10-02T03:21:08.327Z,44.42
2022-10-02T03:26:21.532Z,44.36
2022-10-02T03:31:27.097Z,44.05
2022-10-02T03:36:29.118Z,44.44
2022-10-02T03:41:30.989Z,44.55
2022-10-02T03:46:33.321Z,44.38
2022-10-02T03:51:35.546Z,44.42
2022-10-02T03:56:44.054Z,44.42
2022-10-02T04:01:50.976Z,44.30
2022-10-02T04:07:19.658Z,44.59
2022-10-02T04:12:33.178Z,44.89
2022-10-02T04:17:44.955Z,44.20
2022-10-02T04:23:03.954Z,44.77
2022-10-02T04:28:11.834Z,44.57
2022-10-02T04:33:18.150Z,44.24
2022-10-02T04:38:33.920Z,44.82
2022-10-02T04:44:00.461Z,44.63
2022-10-02T04:49:46.397Z,44.93
2022-10-02T04:55:18.839Z,44.64
2022-10-02T05:00:22.984Z,44.54
2022-10-02T05:05:30.661Z,44.37
2022-10-02T05:10:44.131Z,44.93
2022-10-02T05:15:52.138Z,44.79
2022-10-02T05:21:17.753Z,44.70
2022-10-02T05:26:38.103Z,44.49
2022-10-02T05:32:15.909Z,44.56
2022-10-02T05:37:23.618Z,44.93
2022-10-02T05:42:34.083Z,44.71
2022-10-02T05:47:41.613Z,44.50
2022-10-02T05:53:01.763Z,44.46
2022-10-02T05:58:07.292Z,44.79
2022-10-02T06:03:31.346Z,44.61
2022-10-02T06:08:36.244Z,44.92
2022-10-02T06:13:58.052Z,44.73
2022-10-02T06:19:19.966Z,44.71
2022-10-02T06:24:44.290Z,44.94
2022-10-02T06:29:51.355Z,45.03
2022-10-02T06:34:53.416Z,45.01
2022-10-02T06:40:32.580Z,45.79
2022-10-02T06:45:59.143Z,45.14
2022-10-02T06:51:22.846Z,45.81
2022-10-02T06:57:01.390Z,46.32
2022-10-02T07:02:17.758Z,46.08
2022-10-02T07:07:39.460Z,46.30
2022-10-02T07:13:18.212Z,46.64
2022-10-02T07:18:42.865Z,46.61
2022-10-02T07:24:02.661Z,46.83
2022-10-02T07:29:20.768Z,46.75
2022-10-02T07:34:36.259Z,47.21
2022-10-02T07:40:03.465Z,47.42
2022-10-02T07:45:23.492Z,47.45
2022-10-02T07:50:34.099Z,47.47
2022-10-02T07:55:41.743Z,47.47
2022-10-02T08:00:51.234Z,47.46
2022-10-02T08:05:55.506Z,48.87
2022-10-02T08:11:06.721Z,50.24
2022-10-02T08:16:10.849Z,50.54
2022-10-02T08:21:19.184Z,51.35
2022-10-02T08:26:25.199Z,52.04
2022-10-02T08:31:27.424Z,52.33
2022-10-02T08:36:47.245Z,51.96
2022-10-02T08:42:04.442Z,53.26
2022-10-02T08:47:44.295Z,53.71
2022-10-02T08:53:04.368Z,53.54
2022-10-02T08:58:22.477Z,54.66
2022-10-02T09:03:59.051Z,55.48
2022-10-02T09:09:55.240Z,56.71
2022-10-02T09:15:22.666Z,57.17
2022-10-02T09:21:02.198Z,55.76
2022-10-02T09:26:44.815Z,54.10
2022-10-02T09:33:00.110Z,54.79
2022-10-02T09:38:06.310Z,53.08
2022-10-02T09:43:20.622Z,53.14
2022-10-02T09:49:11.440Z,53.05
2022-10-02T09:54:38.141Z,53.22
2022-10-02T09:59:45.831Z,52.80
2022-10-02T10:05:26.198Z,52.61
2022-10-02T10:10:33.811Z,52.17
2022-10-02T10:16:06.214Z,52.09
2022-10-02T10:21:26.816Z,52.41
2022-10-02T10:26:56.929Z,52.16
2022-10-02T10:32:07.900Z,51.96
2022-10-02T10:37:50.469Z,52.54
2022-10-02T10:43:33.658Z,52.35
2022-10-02T10:48:52.860Z,52.38
2022-10-02T10:54:16.148Z,52.40
2022-10-02T10:59:34.510Z,52.58
2022-10-02T11:05:03.420Z,51.93
2022-10-02T11:10:31.909Z,51.97
2022-10-02T11:15:59.471Z,52.28
2022-10-02T11:21:35.830Z,51.61
2022-10-02T11:27:11.584Z,52.06
2022-10-02T11:32:32.150Z,51.42
2022-10-02T11:37:52.485Z,51.98
2022-10-02T11:43:15.751Z,51.48
2022-10-02T11:48:41.590Z,51.95
2022-10-02T11:53:47.631Z,51.54
2022-10-02T11:59:10.940Z,51.32
2022-10-02T12:04:19.175Z,51.15
2022-10-02T12:09:42.747Z,51.12
2022-10-02T12:14:59.654Z,50.66
2022-10-02T12:20:38.798Z,51.32
2022-10-02T12:26:22.715Z,51.48
2022-10-02T12:31:45.825Z,52.02
2022-10-02T12:36:58.654Z,51.32
2022-10-02T12:42:37.543Z,50.83
2022-10-02T12:47:54.666Z,50.95
2022-10-02T12:53:27.328Z,51.11
2022-10-02T12:58:46.090Z,51.21
2022-10-02T13:04:22.582Z,50.78
2022-10-02T13:10:11.306Z,50.62
2022-10-02T13:15:23.657Z,50.28
2022-10-02T13:20:54.400Z,50.36
2022-10-02T13:26:13.543Z,51.04
2022-10-02T13:31:37.161Z,50.45
2022-10-02T13:36:56.049Z,50.67
2022-10-02T13:42:29.214Z,50.73
2022-10-02T13:47:41.911Z,50.20
2022-10-02T13:52:52.529Z,50.65
2022-10-02T13:58:12.529Z,50.28
2022-10-02T14:03:46.339Z,50.42
2022-10-02T14:09:08.911Z,50.40
2022-10-02T14:14:44.796Z,50.22
2022-10-02T14:20:11.281Z,50.30
2022-10-02T14:25:26.032Z,50.34
2022-10-02T14:30:52.287Z,50.33
2022-10-02T14:36:25.118Z,50.06
2022-10-02T14:41:38.846Z,49.91
2022-10-02T14:47:05.657Z,50.28
2022-10-02T14:52:26.266Z,50.38
2022-10-02T14:57:31.118Z,50.02
2022-10-02T15:02:54.413Z,49.94
2022-10-02T15:07:58.008Z,49.63
2022-10-02T15:13:14.666Z,49.64
2022-10-02T15:18:20.717Z,49.42
2022-10-02T15:23:44.793Z,49.63
2022-10-02T15:28:56.610Z,49.45
2022-10-02T15:34:32.485Z,49.23
2022-10-02T15:40:19.690Z,49.20
2022-10-02T15:45:42.463Z,49.22
2022-10-02T15:51:18.777Z,49.49
2022-10-02T15:56:35.733Z,49.34
2022-10-02T16:01:51.005Z,50.01
2022-10-02T16:06:53.845Z,49.93
2022-10-02T16:12:26.770Z,50.50
2022-10-02T16:17:57.657Z,50.35
2022-10-02T16:23:18.904Z,50.16
2022-10-02T16:28:23.463Z,49.85
2022-10-02T16:33:52.950Z,49.91
2022-10-02T16:39:16.214Z,48.96
2022-10-02T16:44:48.049Z,49.02
2022-10-02T16:49:58.358Z,48.75
2022-10-02T16:55:21.969Z,48.70
2022-10-02T17:00:40.080Z,48.70
2022-10-02T17:05:51.985Z,48.79
2022-10-02T17:11:14.910Z,48.91
2022-10-02T17:16:33.805Z,49.34
2022-10-02T17:21:38.485Z,49.00
2022-10-02T17:26:46.038Z,49.06
2022-10-02T17:31:56.300Z,48.81
2022-10-02T17:37:13.618Z,48.81
2022-10-02T17:42:41.474Z,48.87
2022-10-02T17:47:49.370Z,48.90
2022-10-02T17:53:20.717Z,49.19
2022-10-02T17:58:40.738Z,49.35
2022-10-02T18:04:03.034Z,49.25
2022-10-02T18:09:38.034Z,49.17
2022-10-02T18:14:51.910Z,49.06
2022-10-02T18:20:14.698Z,49.18
2022-10-02T18:25:33.103Z,49.30
2022-10-02T18:30:49.376Z,49.12
2022-10-02T18:36:06.521Z,49.12
2022-10-02T18:41:41.303Z,49.11
2022-10-02T18:47:02.725Z,49.05
2022-10-02T18:52:16.198Z,48.91
2022-10-02T18:57:37.746Z,48.83
2022-10-02T19:03:00.891Z,48.79
2022-10-02T19:08:05.454Z,48.53
2022-10-02T19:13:17.524Z,48.57
2022-10-02T19:18:29.838Z,48.68
2022-10-02T19:23:38.406Z,48.69
2022-10-02T19:28:51.458Z,48.00
2022-10-02T19:33:58.148Z,48.33
2022-10-02T19:39:07.873Z,47.92
2022-10-02T19:44:33.216Z,48.21
2022-10-02T19:49:40.271Z,47.77
2022-10-02T19:54:42.294Z,47.75
2022-10-02T19:59:54.395Z,47.72
2022-10-02T20:05:01.999Z,48.11
2022-10-02T20:10:26.734Z,47.72
2022-10-02T20:16:08.241Z,48.16
2022-10-02T20:21:30.424Z,47.85
2022-10-02T20:26:37.532Z,47.55
2022-10-02T20:31:50.012Z,47.55
2022-10-02T20:36:58.619Z,48.81
2022-10-02T20:42:25.496Z,48.99
2022-10-02T20:47:45.662Z,48.44
2022-10-02T20:53:18.765Z,48.25
2022-10-02T20:58:39.334Z,47.90
2022-10-02T21:09:48.183Z,48.12
2022-10-02T21:15:23.347Z,47.99
2022-10-02T21:20:49.613Z,47.71
2022-10-02T21:26:27.964Z,48.01
2022-10-02T21:31:41.822Z,47.57
2022-10-02T21:36:53.165Z,47.42
2022-10-02T21:42:18.051Z,47.50
2022-10-02T21:47:22.878Z,47.62
2022-10-02T21:52:43.604Z,47.37
2022-10-02T21:58:04.347Z,47.25
2022-10-02T22:03:31.255Z,46.88
2022-10-02T22:08:51.713Z,47.23
2022-10-02T22:13:58.042Z,47.26
2022-10-02T22:19:23.016Z,47.07
2022-10-02T22:24:30.747Z,47.40
2022-10-02T22:29:47.449Z,46.96
2022-10-02T22:35:14.612Z,46.94
2022-10-02T22:40:23.568Z,46.89
2022-10-02T22:45:44.869Z,46.96
2022-10-02T22:51:12.826Z,46.89
2022-10-02T22:56:28.989Z,46.76
2022-10-02T23:01:39.075Z,46.80
2022-10-02T23:06:56.119Z,46.62
2022-10-02T23:12:43.856Z,46.90
2022-10-02T23:18:22.195Z,46.89
2022-10-02T23:23:35.970Z,46.57
2022-10-02T23:28:46.598Z,46.77
2022-10-02T23:33:56.367Z,46.81
2022-10-02T23:39:06.632Z,46.80
2022-10-02T23:44:20.609Z,46.76
2022-10-02T23:49:27.655Z,46.67
2022-10-02T23:54:33.559Z,46.41
